createdAt,value
2018-01-21T00:00:12.286Z,6.25
2018-01-21T00:00:36.054Z,6.25
2018-01-21T00:01:00.205Z,6.24
2018-01-21T00:01:23.956Z,6.25
2018-01-21T00:01:47.989Z,6.24
2018-01-21T00:02:12.019Z,6.25
2018-01-21T00:02:35.768Z,6.24
2018-01-21T00:02:59.501Z,6.25
2018-01-21T00:03:23.257Z,6.25
2018-01-21T00:03:47.078Z,6.24
2018-01-21T00:04:10.819Z,6.24
2018-01-21T00:04:34.875Z,6.24
2018-01-21T00:04:58.615Z,6.23
2018-01-21T00:05:22.068Z,6.24
2018-01-21T00:05:45.819Z,6.24
2018-01-21T00:06:09.555Z,6.24
2018-01-21T00:06:33.008Z,6.24
2018-01-21T00:06:56.739Z,6.23
2018-01-21T00:07:20.485Z,6.23
2018-01-21T00:07:44.515Z,6.23
2018-01-21T00:08:08.519Z,6.22
2018-01-21T00:08:32.325Z,6.22
2018-01-21T00:08:55.800Z,6.22
2018-01-21T00:09:19.555Z,6.22
2018-01-21T00:09:43.296Z,6.22
2018-01-21T00:10:06.967Z,6.23
2018-01-21T00:10:30.701Z,6.24
2018-01-21T00:10:54.479Z,6.24
2018-01-21T00:11:18.259Z,6.24
2018-01-21T00:11:42.281Z,6.24
2018-01-21T00:12:06.290Z,6.24
2018-01-21T00:12:30.051Z,6.24
2018-01-21T00:12:53.507Z,6.24
2018-01-21T00:13:17.253Z,6.24
2018-01-21T00:13:40.984Z,6.24
2018-01-21T00:14:04.504Z,6.24
2018-01-21T00:14:28.303Z,6.24
2018-01-21T00:14:52.034Z,6.23
2018-01-21T00:15:16.049Z,6.24
2018-01-21T00:15:39.804Z,6.24
2018-01-21T00:16:03.559Z,6.24
2018-01-21T00:16:27.291Z,6.24
2018-01-21T00:16:50.863Z,6.24
2018-01-21T00:17:14.882Z,6.24
2018-01-21T00:17:38.920Z,6.24
2018-01-21T00:18:02.672Z,6.24
2018-01-21T00:18:26.410Z,6.23
2018-01-21T00:18:50.159Z,6.23
2018-01-21T00:19:13.939Z,6.23
2018-01-21T00:19:37.675Z,6.23
2018-01-21T00:20:01.698Z,6.23
2018-01-21T00:20:25.733Z,6.23
2018-01-21T00:20:49.567Z,6.23
2018-01-21T00:21:13.596Z,6.22
2018-01-21T00:21:37.607Z,6.22
2018-01-21T00:22:01.619Z,6.22
2018-01-21T00:22:36.339Z,6.21
2018-01-21T00:23:00.102Z,6.20
2018-01-21T00:23:23.841Z,6.21
2018-01-21T00:23:47.611Z,6.21
2018-01-21T00:24:11.354Z,6.21
2018-01-21T00:24:35.414Z,6.22
2018-01-21T00:24:59.168Z,6.22
2018-01-21T00:25:22.611Z,6.22
2018-01-21T00:25:46.340Z,6.22
2018-01-21T00:26:10.558Z,6.22
2018-01-21T00:26:35.063Z,6.22
2018-01-21T00:26:58.577Z,6.22
2018-01-21T00:27:22.323Z,6.22
2018-01-21T00:27:46.075Z,6.22
2018-01-21T00:28:10.091Z,6.22
2018-01-21T00:28:34.096Z,6.22
2018-01-21T00:28:57.844Z,6.23
2018-01-21T00:29:21.585Z,6.23
2018-01-21T00:29:45.342Z,6.22
2018-01-21T00:30:09.083Z,6.23
2018-01-21T00:30:32.852Z,6.24
2018-01-21T00:30:56.899Z,6.24
2018-01-21T00:31:20.969Z,6.24
2018-01-21T00:31:44.733Z,6.25
2018-01-21T00:32:08.783Z,6.24
2018-01-21T00:32:32.807Z,6.25
2018-01-21T00:32:56.587Z,6.24
2018-01-21T00:33:20.043Z,6.25
2018-01-21T00:33:43.776Z,6.25
2018-01-21T00:34:07.504Z,6.24
2018-01-21T00:34:30.997Z,6.25
2018-01-21T00:34:54.751Z,6.25
2018-01-21T00:35:18.479Z,6.25
2018-01-21T00:35:42.502Z,6.26
2018-01-21T00:36:06.512Z,6.26
2018-01-21T00:36:30.317Z,6.26
2018-01-21T00:36:53.845Z,6.27
2018-01-21T00:37:17.587Z,6.26
2018-01-21T00:37:41.325Z,6.26
2018-01-21T00:38:05.336Z,6.27
2018-01-21T00:38:29.091Z,6.27
2018-01-21T00:38:52.850Z,6.27
2018-01-21T00:39:16.579Z,6.27
2018-01-21T00:39:40.318Z,6.28
2018-01-21T00:40:04.112Z,6.28
2018-01-21T00:40:28.119Z,6.28
2018-01-21T00:40:52.121Z,6.28
2018-01-21T00:41:15.843Z,6.28
2018-01-21T00:41:39.560Z,6.27
2018-01-21T00:42:03.312Z,6.28
2018-01-21T00:42:27.062Z,6.28
2018-01-21T00:42:50.826Z,6.28
2018-01-21T00:43:14.844Z,6.28
2018-01-21T00:43:38.858Z,6.28
2018-01-21T00:44:02.318Z,6.29
2018-01-21T00:44:26.075Z,6.29
2018-01-21T00:44:49.823Z,6.29
2018-01-21T00:45:13.628Z,6.28
2018-01-21T00:45:36.739Z,6.29
2018-01-21T00:46:00.484Z,6.28
2018-01-21T00:46:24.215Z,6.29
2018-01-21T00:46:47.951Z,6.29
2018-01-21T00:47:11.681Z,6.28
2018-01-21T00:47:35.423Z,6.29
2018-01-21T00:47:58.876Z,6.28
2018-01-21T00:48:22.611Z,6.28
2018-01-21T00:48:46.016Z,6.28
2018-01-21T00:49:09.818Z,6.29
2018-01-21T00:49:33.555Z,6.28
2018-01-21T00:49:57.297Z,6.28
2018-01-21T00:50:21.413Z,6.28
2018-01-21T00:50:45.156Z,6.28
2018-01-21T00:51:08.597Z,6.28
2018-01-21T00:51:32.329Z,6.28
2018-01-21T00:51:56.083Z,6.28
2018-01-21T00:52:19.533Z,6.28
2018-01-21T00:52:43.268Z,6.28
2018-01-21T00:53:07.023Z,6.28
2018-01-21T00:53:30.464Z,6.27
2018-01-21T00:53:54.203Z,6.26
2018-01-21T00:54:17.947Z,6.26
2018-01-21T00:54:41.998Z,6.26
2018-01-21T00:55:06.023Z,6.26
2018-01-21T00:55:29.794Z,6.26
2018-01-21T00:55:53.269Z,6.26
2018-01-21T00:56:17.045Z,6.25
2018-01-21T00:56:40.827Z,6.25
2018-01-21T00:57:04.846Z,6.24
2018-01-21T00:57:28.886Z,6.24
2018-01-21T00:57:52.639Z,6.23
2018-01-21T00:58:16.213Z,6.23
2018-01-21T00:58:39.947Z,6.23
2018-01-21T00:59:03.667Z,6.23
2018-01-21T00:59:27.752Z,6.22
2018-01-21T00:59:51.496Z,6.23
2018-01-21T01:00:14.941Z,6.23
2018-01-21T01:00:38.695Z,6.22
2018-01-21T01:01:02.439Z,6.22
2018-01-21T01:01:26.450Z,6.22
2018-01-21T01:01:50.461Z,6.22
2018-01-21T01:02:14.480Z,6.22
2018-01-21T01:02:38.219Z,6.21
2018-01-21T01:03:01.954Z,6.21
2018-01-21T01:03:25.699Z,6.21
2018-01-21T01:03:49.439Z,6.21
2018-01-21T01:04:13.212Z,6.21
2018-01-21T01:04:37.246Z,6.22
2018-01-21T01:05:01.306Z,6.22
2018-01-21T01:05:25.047Z,6.22
2018-01-21T01:05:48.512Z,6.22
2018-01-21T01:06:12.276Z,6.22
2018-01-21T01:06:36.012Z,6.22
2018-01-21T01:07:00.044Z,6.22
2018-01-21T01:07:24.080Z,6.22
2018-01-21T01:07:47.831Z,6.22
2018-01-21T01:08:11.276Z,6.22
2018-01-21T01:08:35.005Z,6.22
2018-01-21T01:08:58.760Z,6.22
2018-01-21T01:09:22.204Z,6.22
2018-01-21T01:09:45.924Z,6.22
2018-01-21T01:10:09.672Z,6.22
2018-01-21T01:10:33.736Z,6.23
2018-01-21T01:10:57.781Z,6.23
2018-01-21T01:11:21.524Z,6.23
2018-01-21T01:11:44.606Z,6.22
2018-01-21T01:12:08.629Z,6.23
2018-01-21T01:12:32.639Z,6.23
2018-01-21T01:12:56.399Z,6.23
2018-01-21T01:13:19.872Z,6.24
2018-01-21T01:13:43.622Z,6.24
2018-01-21T01:14:07.351Z,6.24
2018-01-21T01:14:31.375Z,6.24
2018-01-21T01:14:55.434Z,6.24
2018-01-21T01:15:19.167Z,6.24
2018-01-21T01:15:42.892Z,6.25
2018-01-21T01:16:06.642Z,6.25
2018-01-21T01:16:30.395Z,6.25
2018-01-21T01:16:54.140Z,6.25
2018-01-21T01:17:18.180Z,6.25
2018-01-21T01:17:42.239Z,6.26
2018-01-21T01:18:06.157Z,6.26
2018-01-21T01:18:30.200Z,6.26
2018-01-21T01:18:54.014Z,6.26
2018-01-21T01:19:18.045Z,6.25
2018-01-21T01:19:42.058Z,6.25
2018-01-21T01:20:05.844Z,6.25
2018-01-21T01:20:29.287Z,6.25
2018-01-21T01:20:53.117Z,6.25
2018-01-21T01:21:16.896Z,6.25
2018-01-21T01:21:40.931Z,6.25
2018-01-21T01:22:04.005Z,6.24
2018-01-21T01:22:27.735Z,6.24
2018-01-21T01:22:51.779Z,6.22
2018-01-21T01:23:15.229Z,6.22
2018-01-21T01:23:38.956Z,6.22
2018-01-21T01:24:02.699Z,6.22
2018-01-21T01:24:26.435Z,6.22
2018-01-21T01:24:49.876Z,6.22
2018-01-21T01:25:13.624Z,6.21
2018-01-21T01:25:37.387Z,6.21
2018-01-21T01:26:00.838Z,6.20
2018-01-21T01:26:24.600Z,6.20
2018-01-21T01:26:48.333Z,6.19
2018-01-21T01:27:12.363Z,6.19
2018-01-21T01:27:36.395Z,6.18
2018-01-21T01:27:59.877Z,6.18
2018-01-21T01:28:23.621Z,6.18
2018-01-21T01:28:47.359Z,6.17
2018-01-21T01:29:11.103Z,6.18
2018-01-21T01:29:34.556Z,6.17
2018-01-21T01:29:58.315Z,6.17
2018-01-21T01:30:22.062Z,6.17
2018-01-21T01:30:46.071Z,6.18
2018-01-21T01:31:10.088Z,6.18
2018-01-21T01:31:33.583Z,6.18
2018-01-21T01:31:57.311Z,6.19
2018-01-21T01:32:26.586Z,6.18
2018-01-21T01:32:50.209Z,6.19
2018-01-21T01:33:13.948Z,6.19
2018-01-21T01:33:37.430Z,6.19
2018-01-21T01:34:01.168Z,6.19
2018-01-21T01:34:24.959Z,6.19
2018-01-21T01:34:48.708Z,6.19
2018-01-21T01:35:12.755Z,6.19
2018-01-21T01:35:36.787Z,6.19
2018-01-21T01:36:00.568Z,6.20
2018-01-21T01:36:24.026Z,6.19
2018-01-21T01:36:47.810Z,6.19
2018-01-21T01:37:11.580Z,6.19
2018-01-21T01:37:35.440Z,6.19
2018-01-21T01:37:58.916Z,6.19
2018-01-21T01:38:22.671Z,6.19
2018-01-21T01:38:46.432Z,6.20
2018-01-21T01:39:10.465Z,6.20
2018-01-21T01:39:34.487Z,6.21
2018-01-21T01:39:57.865Z,6.21
2018-01-21T01:40:21.628Z,6.22
2018-01-21T01:40:45.382Z,6.21
2018-01-21T01:41:09.139Z,6.21
2018-01-21T01:41:33.241Z,6.22
2018-01-21T01:41:57.300Z,6.22
2018-01-21T01:42:21.064Z,6.22
2018-01-21T01:42:44.502Z,6.22
2018-01-21T01:43:08.235Z,6.22
2018-01-21T01:43:31.983Z,6.21
2018-01-21T01:43:55.459Z,6.21
2018-01-21T01:44:19.196Z,6.21
2018-01-21T01:44:42.965Z,6.21
2018-01-21T01:45:06.994Z,6.21
2018-01-21T01:45:31.017Z,6.20
2018-01-21T01:45:54.472Z,6.20
2018-01-21T01:46:18.237Z,6.21
2018-01-21T01:46:41.963Z,6.20
2018-01-21T01:47:05.776Z,6.20
2018-01-21T01:47:29.847Z,6.20
2018-01-21T01:47:53.872Z,6.19
2018-01-21T01:48:17.621Z,6.19
2018-01-21T01:48:40.667Z,6.19
2018-01-21T01:49:04.111Z,6.18
2018-01-21T01:49:27.865Z,6.18
2018-01-21T01:49:51.629Z,6.18
2018-01-21T01:50:15.651Z,6.18
2018-01-21T01:50:39.707Z,6.18
2018-01-21T01:51:03.454Z,6.18
2018-01-21T01:51:26.908Z,6.18
2018-01-21T01:51:50.887Z,6.17
2018-01-21T01:52:14.723Z,6.18
2018-01-21T01:52:38.673Z,6.18
2018-01-21T01:53:02.423Z,6.18
2018-01-21T01:53:26.471Z,6.18
2018-01-21T01:53:50.223Z,6.18
2018-01-21T01:54:13.655Z,6.17
2018-01-21T01:54:37.407Z,6.18
2018-01-21T01:55:01.168Z,6.18
2018-01-21T01:55:24.627Z,6.17
2018-01-21T01:55:48.380Z,6.19
2018-01-21T01:56:12.137Z,6.19
2018-01-21T01:56:36.175Z,6.19
2018-01-21T01:57:00.213Z,6.18
2018-01-21T01:57:24.069Z,6.18
2018-01-21T01:57:48.096Z,6.18
2018-01-21T01:58:12.138Z,6.19
2018-01-21T01:58:35.900Z,6.18
2018-01-21T01:58:59.365Z,6.19
2018-01-21T01:59:23.103Z,6.19
2018-01-21T01:59:46.984Z,6.20
2018-01-21T02:00:10.733Z,6.20
2018-01-21T02:00:34.189Z,6.21
2018-01-21T02:00:57.931Z,6.20
2018-01-21T02:01:21.692Z,6.20
2018-01-21T02:01:45.190Z,6.20
2018-01-21T02:02:08.759Z,6.21
2018-01-21T02:02:32.810Z,6.19
2018-01-21T02:02:56.575Z,6.19
2018-01-21T02:03:20.012Z,6.20
2018-01-21T02:03:43.761Z,6.19
2018-01-21T02:04:07.514Z,6.19
2018-01-21T02:04:31.560Z,6.19
2018-01-21T02:04:55.594Z,6.18
2018-01-21T02:05:19.350Z,6.18
2018-01-21T02:05:42.799Z,6.18
2018-01-21T02:06:06.561Z,6.18
2018-01-21T02:06:30.346Z,6.18
2018-01-21T02:06:54.373Z,6.18
2018-01-21T02:07:18.268Z,6.18
2018-01-21T02:07:42.356Z,6.18
2018-01-21T02:08:05.910Z,6.18
2018-01-21T02:08:29.692Z,6.19
2018-01-21T02:08:53.431Z,6.18
2018-01-21T02:09:17.156Z,6.18
2018-01-21T02:09:41.184Z,6.19
2018-01-21T02:10:05.221Z,6.18
2018-01-21T02:10:28.966Z,6.18
2018-01-21T02:10:52.785Z,6.18
2018-01-21T02:11:16.267Z,6.18
2018-01-21T02:11:39.646Z,6.17
2018-01-21T02:12:03.416Z,6.18
2018-01-21T02:12:27.169Z,6.17
2018-01-21T02:12:50.946Z,6.17
2018-01-21T02:13:15.053Z,6.17
2018-01-21T02:13:38.808Z,6.17
2018-01-21T02:14:02.289Z,6.16
2018-01-21T02:14:26.067Z,6.16
2018-01-21T02:14:49.834Z,6.15
2018-01-21T02:15:13.855Z,6.15
2018-01-21T02:15:37.304Z,6.14
2018-01-21T02:16:01.058Z,6.14
2018-01-21T02:16:24.809Z,6.14
2018-01-21T02:16:48.566Z,6.13
2018-01-21T02:17:12.323Z,6.12
2018-01-21T02:17:36.068Z,6.11
2018-01-21T02:17:59.833Z,6.10
2018-01-21T02:18:23.578Z,6.09
2018-01-21T02:18:47.606Z,6.08
2018-01-21T02:19:10.387Z,6.08
2018-01-21T02:19:33.827Z,6.06
2018-01-21T02:19:57.226Z,6.06
2018-01-21T02:20:20.608Z,6.06
2018-01-21T02:20:44.127Z,6.06
2018-01-21T02:21:07.869Z,6.06
2018-01-21T02:21:31.610Z,6.05
2018-01-21T02:21:55.007Z,6.06
2018-01-21T02:22:18.801Z,6.05
2018-01-21T02:22:42.550Z,6.05
2018-01-21T02:23:06.314Z,6.05
2018-01-21T02:23:30.073Z,6.04
2018-01-21T02:23:53.520Z,6.04
2018-01-21T02:24:17.247Z,6.04
2018-01-21T02:24:40.988Z,6.04
2018-01-21T02:25:04.485Z,6.04
2018-01-21T02:25:28.211Z,6.04
2018-01-21T02:25:51.988Z,6.04
2018-01-21T02:26:16.003Z,6.03
2018-01-21T02:26:40.009Z,6.03
2018-01-21T02:27:03.751Z,6.03
2018-01-21T02:27:27.198Z,6.03
2018-01-21T02:27:50.942Z,6.03
2018-01-21T02:28:14.738Z,6.03
2018-01-21T02:28:38.195Z,6.02
2018-01-21T02:29:01.735Z,6.01
2018-01-21T02:29:25.741Z,6.01
2018-01-21T02:29:49.759Z,6.01
2018-01-21T02:30:13.215Z,6.00
2018-01-21T02:30:36.976Z,6.00
2018-01-21T02:31:00.794Z,5.99
2018-01-21T02:31:24.542Z,5.99
2018-01-21T02:31:48.568Z,5.99
2018-01-21T02:32:12.600Z,5.98
2018-01-21T02:32:36.362Z,5.98
2018-01-21T02:32:59.824Z,5.97
2018-01-21T02:33:23.583Z,5.97
2018-01-21T02:33:47.336Z,5.97
2018-01-21T02:34:11.400Z,5.97
2018-01-21T02:34:34.948Z,5.96
2018-01-21T02:34:58.693Z,5.96
2018-01-21T02:35:22.437Z,5.96
2018-01-21T02:35:46.204Z,5.95
2018-01-21T02:36:10.261Z,5.94
2018-01-21T02:36:33.732Z,5.94
2018-01-21T02:36:57.114Z,5.93
2018-01-21T02:37:21.129Z,5.92
2018-01-21T02:37:45.135Z,5.91
2018-01-21T02:38:08.602Z,5.90
2018-01-21T02:38:32.359Z,5.89
2018-01-21T02:38:56.100Z,5.87
2018-01-21T02:39:19.857Z,5.86
2018-01-21T02:39:43.892Z,5.84
2018-01-21T02:40:07.924Z,5.83
2018-01-21T02:40:31.704Z,5.82
2018-01-21T02:40:55.115Z,5.81
2018-01-21T02:41:18.843Z,5.80
2018-01-21T02:41:42.297Z,5.79
2018-01-21T02:42:06.031Z,5.78
2018-01-21T02:42:29.791Z,5.77
2018-01-21T02:42:53.581Z,5.76
2018-01-21T02:43:17.038Z,5.75
2018-01-21T02:43:40.803Z,5.75
2018-01-21T02:44:04.565Z,5.75
2018-01-21T02:44:28.577Z,5.75
2018-01-21T02:44:52.350Z,5.75
2018-01-21T02:45:16.103Z,5.75
2018-01-21T02:45:39.824Z,5.75
2018-01-21T02:46:03.581Z,5.75
2018-01-21T02:46:27.338Z,5.75
2018-01-21T02:46:51.377Z,5.74
2018-01-21T02:47:15.421Z,5.76
2018-01-21T02:47:39.186Z,5.75
2018-01-21T02:48:03.212Z,5.76
2018-01-21T02:48:27.252Z,5.76
2018-01-21T02:48:51.291Z,5.77
2018-01-21T02:49:14.676Z,5.78
2018-01-21T02:49:38.399Z,5.78
2018-01-21T02:50:02.131Z,5.79
2018-01-21T02:50:26.266Z,5.79
2018-01-21T02:50:50.015Z,5.80
2018-01-21T02:51:14.028Z,5.81
2018-01-21T02:51:38.078Z,5.81
2018-01-21T02:52:01.835Z,5.81
2018-01-21T02:52:25.282Z,5.82
2018-01-21T02:52:49.054Z,5.82
2018-01-21T02:53:12.811Z,5.82
2018-01-21T02:53:36.824Z,5.83
2018-01-21T02:54:00.886Z,5.83
2018-01-21T02:54:24.652Z,5.83
2018-01-21T02:54:48.095Z,5.83
2018-01-21T02:55:11.843Z,5.83
2018-01-21T02:55:35.606Z,5.84
2018-01-21T02:55:59.616Z,5.84
2018-01-21T02:56:23.633Z,5.85
2018-01-21T02:56:47.660Z,5.84
2018-01-21T02:57:11.438Z,5.85
2018-01-21T02:57:34.903Z,5.85
2018-01-21T02:57:58.646Z,5.85
2018-01-21T02:58:22.404Z,5.85
2018-01-21T02:58:46.490Z,5.85
2018-01-21T02:59:10.404Z,5.85
2018-01-21T02:59:34.420Z,5.85
2018-01-21T02:59:57.882Z,5.85
2018-01-21T03:00:21.664Z,5.86
2018-01-21T03:00:45.497Z,5.85
2018-01-21T03:01:09.233Z,5.85
2018-01-21T03:01:33.271Z,5.85
2018-01-21T03:01:56.728Z,5.85
2018-01-21T03:02:20.504Z,5.85
2018-01-21T03:02:44.243Z,5.85
2018-01-21T03:03:08.904Z,5.86
2018-01-21T03:03:32.656Z,5.86
2018-01-21T03:03:56.591Z,5.86
2018-01-21T03:04:20.347Z,5.86
2018-01-21T03:04:44.081Z,5.86
2018-01-21T03:05:07.835Z,5.87
2018-01-21T03:05:31.298Z,5.87
2018-01-21T03:05:55.036Z,5.87
2018-01-21T03:06:18.834Z,5.87
2018-01-21T03:06:42.859Z,5.87
2018-01-21T03:07:06.900Z,5.88
2018-01-21T03:07:30.667Z,5.88
2018-01-21T03:07:54.115Z,5.88
2018-01-21T03:08:17.864Z,5.88
2018-01-21T03:08:41.672Z,5.88
2018-01-21T03:09:05.017Z,5.89
2018-01-21T03:09:28.775Z,5.89
2018-01-21T03:09:52.563Z,5.89
2018-01-21T03:10:16.593Z,5.89
2018-01-21T03:10:40.101Z,5.90
2018-01-21T03:11:04.018Z,5.90
2018-01-21T03:11:27.764Z,5.89
2018-01-21T03:11:51.504Z,5.89
2018-01-21T03:12:15.259Z,5.89
2018-01-21T03:12:38.727Z,5.89
2018-01-21T03:13:02.461Z,5.89
2018-01-21T03:13:25.873Z,5.89
2018-01-21T03:13:49.609Z,5.89
2018-01-21T03:14:13.350Z,5.89
2018-01-21T03:14:37.237Z,5.89
2018-01-21T03:15:01.277Z,5.89
2018-01-21T03:15:25.048Z,5.89
2018-01-21T03:15:48.487Z,5.89
2018-01-21T03:16:12.260Z,5.88
2018-01-21T03:16:36.140Z,5.88
2018-01-21T03:16:59.922Z,5.86
2018-01-21T03:17:23.396Z,5.85
2018-01-21T03:17:47.163Z,5.85
2018-01-21T03:18:10.915Z,5.84
2018-01-21T03:18:34.983Z,5.83
2018-01-21T03:18:58.731Z,5.82
2018-01-21T03:19:22.193Z,5.81
2018-01-21T03:19:45.955Z,5.79
2018-01-21T03:20:09.725Z,5.79
2018-01-21T03:20:33.800Z,5.78
2018-01-21T03:20:57.548Z,5.78
2018-01-21T03:21:21.027Z,5.77
2018-01-21T03:21:44.772Z,5.76
2018-01-21T03:22:08.526Z,5.76
2018-01-21T03:22:32.481Z,5.75
2018-01-21T03:22:55.959Z,5.76
2018-01-21T03:23:19.738Z,5.76
2018-01-21T03:23:43.482Z,5.75
2018-01-21T03:24:07.562Z,5.75
2018-01-21T03:24:31.299Z,5.75
2018-01-21T03:24:54.791Z,5.76
2018-01-21T03:25:18.537Z,5.76
2018-01-21T03:25:42.306Z,5.77
2018-01-21T03:26:06.356Z,5.77
2018-01-21T03:26:30.281Z,5.77
2018-01-21T03:26:54.049Z,5.76
2018-01-21T03:27:17.487Z,5.76
2018-01-21T03:27:41.355Z,5.76
2018-01-21T03:28:05.142Z,5.77
2018-01-21T03:28:28.903Z,5.76
2018-01-21T03:28:52.362Z,5.76
2018-01-21T03:29:16.111Z,5.76
2018-01-21T03:29:39.867Z,5.76
2018-01-21T03:30:03.940Z,5.75
2018-01-21T03:30:27.430Z,5.76
2018-01-21T03:30:51.204Z,5.76
2018-01-21T03:31:14.955Z,5.77
2018-01-21T03:31:38.699Z,5.76
2018-01-21T03:32:02.732Z,5.76
2018-01-21T03:32:26.796Z,5.77
2018-01-21T03:32:50.555Z,5.76
2018-01-21T03:33:14.594Z,5.76
2018-01-21T03:33:38.667Z,5.76
2018-01-21T03:34:02.421Z,5.76
2018-01-21T03:34:25.878Z,5.75
2018-01-21T03:34:49.628Z,5.75
2018-01-21T03:35:13.410Z,5.73
2018-01-21T03:35:37.480Z,5.74
2018-01-21T03:36:01.251Z,5.74
2018-01-21T03:36:24.699Z,5.74
2018-01-21T03:36:48.459Z,5.74
2018-01-21T03:37:12.219Z,5.74
2018-01-21T03:37:36.276Z,5.74
2018-01-21T03:38:00.332Z,5.74
2018-01-21T03:38:24.093Z,5.73
2018-01-21T03:38:48.139Z,5.72
2018-01-21T03:39:12.171Z,5.71
2018-01-21T03:39:35.931Z,5.71
2018-01-21T03:39:59.399Z,5.69
2018-01-21T03:40:23.163Z,5.69
2018-01-21T03:40:46.919Z,5.69
2018-01-21T03:41:10.997Z,5.68
2018-01-21T03:41:34.749Z,5.68
2018-01-21T03:41:58.193Z,5.68
2018-01-21T03:42:21.933Z,5.68
2018-01-21T03:42:45.685Z,5.68
2018-01-21T03:43:09.787Z,5.68
2018-01-21T03:43:33.249Z,5.68
2018-01-21T03:43:56.996Z,5.68
2018-01-21T03:44:20.737Z,5.68
2018-01-21T03:44:44.492Z,5.68
2018-01-21T03:45:08.536Z,5.69
2018-01-21T03:45:32.363Z,5.69
2018-01-21T03:45:56.095Z,5.69
2018-01-21T03:46:19.851Z,5.69
2018-01-21T03:46:43.610Z,5.70
2018-01-21T03:47:07.445Z,5.69
2018-01-21T03:47:31.499Z,5.68
2018-01-21T03:47:55.240Z,5.67
2018-01-21T03:48:19.304Z,5.67
2018-01-21T03:48:43.335Z,5.66
2018-01-21T03:49:07.091Z,5.66
2018-01-21T03:49:30.559Z,5.65
2018-01-21T03:49:54.291Z,5.64
2018-01-21T03:50:18.034Z,5.63
2018-01-21T03:50:42.083Z,5.61
2018-01-21T03:51:06.123Z,5.61
2018-01-21T03:51:29.881Z,5.60
2018-01-21T03:51:53.326Z,5.59
2018-01-21T03:52:17.087Z,5.59
2018-01-21T03:52:40.874Z,5.58
2018-01-21T03:53:04.906Z,5.58
2018-01-21T03:53:28.355Z,5.57
2018-01-21T03:53:51.906Z,5.57
2018-01-21T03:54:15.461Z,5.56
2018-01-21T03:54:39.024Z,5.57
2018-01-21T03:55:02.763Z,5.56
2018-01-21T03:55:26.512Z,5.56
2018-01-21T03:55:50.009Z,5.57
2018-01-21T03:56:13.751Z,5.58
2018-01-21T03:56:37.508Z,5.58
2018-01-21T03:57:01.537Z,5.57
2018-01-21T03:57:25.578Z,5.58
2018-01-21T03:57:49.599Z,5.59
2018-01-21T03:58:13.344Z,5.58
2018-01-21T03:58:37.408Z,5.59
2018-01-21T03:59:00.852Z,5.60
2018-01-21T03:59:24.632Z,5.61
2018-01-21T03:59:48.389Z,5.61
2018-01-21T04:00:14.465Z,5.62
2018-01-21T04:00:38.233Z,5.63
2018-01-21T04:01:01.997Z,5.64
2018-01-21T04:01:25.762Z,5.64
2018-01-21T04:01:49.420Z,5.65
2018-01-21T04:02:13.164Z,5.65
2018-01-21T04:02:36.911Z,5.67
2018-01-21T04:03:00.948Z,5.67
2018-01-21T04:03:25.016Z,5.68
2018-01-21T04:03:48.778Z,5.69
2018-01-21T04:04:12.223Z,5.70
2018-01-21T04:04:35.980Z,5.71
2018-01-21T04:04:59.735Z,5.71
2018-01-21T04:05:23.172Z,5.71
2018-01-21T04:05:46.927Z,5.72
2018-01-21T04:06:10.703Z,5.72
2018-01-21T04:06:34.733Z,5.72
2018-01-21T04:06:58.172Z,5.73
2018-01-21T04:07:21.915Z,5.74
2018-01-21T04:07:45.691Z,5.73
2018-01-21T04:08:09.443Z,5.74
2018-01-21T04:08:32.881Z,5.74
2018-01-21T04:08:56.613Z,5.74
2018-01-21T04:09:20.367Z,5.74
2018-01-21T04:09:43.826Z,5.75
2018-01-21T04:10:07.560Z,5.75
2018-01-21T04:10:31.313Z,5.74
2018-01-21T04:10:55.339Z,5.74
2018-01-21T04:11:19.391Z,5.75
2018-01-21T04:11:43.132Z,5.74
2018-01-21T04:12:06.599Z,5.73
2018-01-21T04:12:30.443Z,5.72
2018-01-21T04:12:54.196Z,5.71
2018-01-21T04:13:18.208Z,5.70
2018-01-21T04:13:41.958Z,5.68
2018-01-21T04:14:05.808Z,5.67
2018-01-21T04:14:29.414Z,5.65
2018-01-21T04:14:53.147Z,5.64
2018-01-21T04:15:16.907Z,5.64
2018-01-21T04:15:40.948Z,5.63
2018-01-21T04:16:04.970Z,5.62
2018-01-21T04:16:28.752Z,5.62
2018-01-21T04:16:52.221Z,5.60
2018-01-21T04:17:15.956Z,5.60
2018-01-21T04:17:39.724Z,5.59
2018-01-21T04:18:03.756Z,5.58
2018-01-21T04:18:27.777Z,5.57
2018-01-21T04:18:51.518Z,5.56
2018-01-21T04:19:14.972Z,5.55
2018-01-21T04:19:38.704Z,5.54
2018-01-21T04:20:02.447Z,5.53
2018-01-21T04:20:26.524Z,5.52
2018-01-21T04:20:50.530Z,5.52
2018-01-21T04:21:14.543Z,5.51
2018-01-21T04:21:38.333Z,5.51
2018-01-21T04:22:02.360Z,5.51
2018-01-21T04:22:26.460Z,5.50
2018-01-21T04:22:50.012Z,5.50
2018-01-21T04:23:13.556Z,5.50
2018-01-21T04:23:37.283Z,5.49
2018-01-21T04:24:01.314Z,5.49
2018-01-21T04:24:25.054Z,5.48
2018-01-21T04:24:48.526Z,5.47
2018-01-21T04:25:12.259Z,5.48
2018-01-21T04:25:36.011Z,5.47
2018-01-21T04:26:00.043Z,5.46
2018-01-21T04:26:24.081Z,5.45
2018-01-21T04:26:47.852Z,5.45
2018-01-21T04:27:11.291Z,5.44
2018-01-21T04:27:35.025Z,5.43
2018-01-21T04:27:58.775Z,5.43
2018-01-21T04:28:22.224Z,5.41
2018-01-21T04:28:45.953Z,5.41
2018-01-21T04:29:09.731Z,5.40
2018-01-21T04:29:33.759Z,5.39
2018-01-21T04:29:57.207Z,5.37
2018-01-21T04:30:20.939Z,5.37
2018-01-21T04:30:44.717Z,5.35
2018-01-21T04:31:08.528Z,5.34
2018-01-21T04:31:32.540Z,5.33
2018-01-21T04:31:56.580Z,5.31
2018-01-21T04:32:20.379Z,5.29
2018-01-21T04:32:44.338Z,5.28
2018-01-21T04:33:08.359Z,5.26
2018-01-21T04:33:32.388Z,5.25
2018-01-21T04:33:56.436Z,5.23
2018-01-21T04:34:20.200Z,5.22
2018-01-21T04:34:43.655Z,5.20
2018-01-21T04:35:07.383Z,5.19
2018-01-21T04:35:31.123Z,5.17
2018-01-21T04:35:55.157Z,5.15
2018-01-21T04:36:19.187Z,5.15
2018-01-21T04:36:43.032Z,5.14
2018-01-21T04:37:07.087Z,5.12
2018-01-21T04:37:30.824Z,5.11
2018-01-21T04:37:54.272Z,5.10
2018-01-21T04:38:18.020Z,5.08
2018-01-21T04:38:41.809Z,5.07
2018-01-21T04:39:05.156Z,5.06
2018-01-21T04:39:28.916Z,5.04
2018-01-21T04:39:52.659Z,5.04
2018-01-21T04:40:16.099Z,5.02
2018-01-21T04:40:39.843Z,5.01
2018-01-21T04:41:03.611Z,4.99
2018-01-21T04:41:27.650Z,4.99
2018-01-21T04:41:51.392Z,4.97
2018-01-21T04:42:14.855Z,4.96
2018-01-21T04:42:38.588Z,4.95
2018-01-21T04:43:02.363Z,4.94
2018-01-21T04:43:26.398Z,4.93
2018-01-21T04:43:50.468Z,4.92
2018-01-21T04:44:14.215Z,4.91
2018-01-21T04:44:37.659Z,4.91
2018-01-21T04:45:01.395Z,4.90
2018-01-21T04:45:24.805Z,4.88
2018-01-21T04:45:48.735Z,4.88
2018-01-21T04:46:12.475Z,4.87
2018-01-21T04:46:36.207Z,4.86
2018-01-21T04:46:59.958Z,4.86
2018-01-21T04:47:24.030Z,4.84
2018-01-21T04:47:48.076Z,4.84
2018-01-21T04:48:11.892Z,4.83
2018-01-21T04:48:35.967Z,4.83
2018-01-21T04:48:59.427Z,4.82
2018-01-21T04:49:23.172Z,4.81
2018-01-21T04:49:46.920Z,4.80
2018-01-21T04:50:10.692Z,4.80
2018-01-21T04:50:34.742Z,4.80
2018-01-21T04:50:58.765Z,4.78
2018-01-21T04:51:22.520Z,4.78
2018-01-21T04:51:45.967Z,4.77
2018-01-21T04:52:09.696Z,4.77
2018-01-21T04:52:33.467Z,4.77
2018-01-21T04:52:56.948Z,4.77
2018-01-21T04:53:20.695Z,4.77
2018-01-21T04:53:44.453Z,4.77
2018-01-21T04:54:08.471Z,4.79
2018-01-21T04:54:32.242Z,4.79
2018-01-21T04:54:55.698Z,4.81
2018-01-21T04:55:19.439Z,4.82
2018-01-21T04:55:43.198Z,4.83
2018-01-21T04:56:07.207Z,4.85
2018-01-21T04:56:30.377Z,4.86
2018-01-21T04:56:54.135Z,4.87
2018-01-21T04:57:18.183Z,4.88
2018-01-21T04:57:41.955Z,4.90
2018-01-21T04:58:05.442Z,4.91
2018-01-21T04:58:29.202Z,4.92
2018-01-21T04:58:52.953Z,4.93
2018-01-21T04:59:16.984Z,4.94
2018-01-21T04:59:40.754Z,4.95
2018-01-21T05:00:03.514Z,4.96
2018-01-21T05:00:27.314Z,4.97
2018-01-21T05:00:51.051Z,4.98
2018-01-21T05:01:14.864Z,4.98
2018-01-21T05:01:38.676Z,4.99
2018-01-21T05:02:02.781Z,5.01
2018-01-21T05:02:26.557Z,5.01
2018-01-21T05:02:50.040Z,5.02
2018-01-21T05:03:13.797Z,5.04
2018-01-21T05:03:37.559Z,5.05
2018-01-21T05:04:01.607Z,5.05
2018-01-21T05:04:25.359Z,5.06
2018-01-21T05:04:49.422Z,5.07
2018-01-21T05:05:13.468Z,5.08
2018-01-21T05:05:37.232Z,5.09
2018-01-21T05:06:00.706Z,5.09
2018-01-21T05:06:24.455Z,5.10
2018-01-21T05:06:48.242Z,5.11
2018-01-21T05:07:12.263Z,5.11
2018-01-21T05:07:35.716Z,5.13
2018-01-21T05:07:59.483Z,5.14
2018-01-21T05:08:23.212Z,5.14
2018-01-21T05:08:46.974Z,5.15
2018-01-21T05:09:11.004Z,5.16
2018-01-21T05:09:35.048Z,5.16
2018-01-21T05:09:58.552Z,5.15
2018-01-21T05:10:22.295Z,5.16
2018-01-21T05:10:46.050Z,5.17
2018-01-21T05:11:09.803Z,5.16
2018-01-21T05:11:33.827Z,5.16
2018-01-21T05:11:57.872Z,5.16
2018-01-21T05:12:21.647Z,5.15
2018-01-21T05:12:45.711Z,5.15
2018-01-21T05:13:09.771Z,5.15
2018-01-21T05:13:33.528Z,5.14
2018-01-21T05:13:56.983Z,5.13
2018-01-21T05:14:20.727Z,5.12
2018-01-21T05:14:44.476Z,5.11
2018-01-21T05:15:08.510Z,5.09
2018-01-21T05:15:32.560Z,5.08
2018-01-21T05:15:56.359Z,5.06
2018-01-21T05:16:20.517Z,5.05
2018-01-21T05:16:44.276Z,5.04